createdAt,value
2022-08-11T00:01:37.965Z,20.76
2022-08-11T00:03:46.076Z,20.82
2022-08-11T00:05:52.768Z,20.77
2022-08-11T00:07:57.775Z,20.73
2022-08-11T00:10:01.020Z,20.56
2022-08-11T00:12:04.872Z,20.58
2022-08-11T00:14:16.198Z,20.72
2022-08-11T00:16:22.113Z,20.73
2022-08-11T00:18:25.299Z,20.71
2022-08-11T00:20:32.171Z,20.52
2022-08-11T00:22:36.732Z,20.31
2022-08-11T00:24:53.508Z,20.44
2022-08-11T00:26:58.162Z,20.45
2022-08-11T00:29:11.069Z,20.52
2022-08-11T00:31:24.308Z,20.40
2022-08-11T00:33:44.458Z,20.31
2022-08-11T00:35:51.317Z,20.21
2022-08-11T00:38:01.237Z,20.19
2022-08-11T00:40:05.136Z,20.20
2022-08-11T00:42:16.003Z,20.23
2022-08-11T00:44:33.874Z,20.06
2022-08-11T00:46:46.570Z,19.93
2022-08-11T00:49:01.790Z,19.87
2022-08-11T00:51:16.769Z,19.83
2022-08-11T00:53:32.061Z,19.87
2022-08-11T00:56:18.372Z,19.93
2022-08-11T00:58:56.410Z,19.94
2022-08-11T01:01:23.329Z,19.91
2022-08-11T01:03:34.085Z,19.64
2022-08-11T01:05:47.523Z,19.65
2022-08-11T01:08:10.442Z,19.62
2022-08-11T01:10:32.144Z,19.68
2022-08-11T01:12:45.756Z,19.60
2022-08-11T01:15:21.703Z,19.72
2022-08-11T01:17:58.607Z,19.64
2022-08-11T01:20:46.181Z,19.67
2022-08-11T01:23:22.689Z,19.63
2022-08-11T01:25:57.315Z,19.46
2022-08-11T01:28:42.108Z,19.21
2022-08-11T01:31:03.111Z,19.43
2022-08-11T01:33:39.380Z,19.48
2022-08-11T01:36:00.609Z,19.42
2022-08-11T01:38:28.910Z,19.39
2022-08-11T01:41:03.710Z,19.29
2022-08-11T01:43:38.321Z,19.19
2022-08-11T01:45:44.238Z,19.14
2022-08-11T01:48:02.029Z,19.09
2022-08-11T01:50:11.318Z,19.02
2022-08-11T01:52:30.299Z,19.00
2022-08-11T01:54:43.851Z,18.96
2022-08-11T01:56:53.909Z,18.93
2022-08-11T01:59:04.967Z,18.89
2022-08-11T02:01:31.208Z,18.88
2022-08-11T02:03:38.108Z,18.81
2022-08-11T02:06:01.196Z,18.78
2022-08-11T02:08:11.646Z,18.75
2022-08-11T02:10:41.178Z,18.74
2022-08-11T02:12:56.215Z,18.68
2022-08-11T02:15:07.166Z,18.65
2022-08-11T02:17:16.235Z,18.62
2022-08-11T02:19:49.264Z,18.60
2022-08-11T02:22:13.513Z,18.56
2022-08-11T02:24:21.745Z,18.57
2022-08-11T02:26:26.785Z,18.59
2022-08-11T02:28:40.210Z,18.61
2022-08-11T02:32:05.091Z,18.52
2022-08-11T02:33:44.849Z,18.60
2022-08-11T02:35:51.478Z,18.55
2022-08-11T02:38:06.008Z,18.59
2022-08-11T02:40:20.828Z,18.58
2022-08-11T02:42:35.125Z,18.54
2022-08-11T02:44:43.126Z,18.39
2022-08-11T02:46:52.875Z,18.45
2022-08-11T02:49:19.119Z,18.42
2022-08-11T02:51:29.028Z,18.38
2022-08-11T02:53:38.037Z,18.31
2022-08-11T02:55:57.368Z,18.26
2022-08-11T02:58:11.012Z,18.23
2022-08-11T03:00:16.184Z,18.22
2022-08-11T03:02:31.583Z,18.20
2022-08-11T03:04:45.002Z,18.20
2022-08-11T03:06:51.316Z,18.13
2022-08-11T03:08:57.531Z,18.18
2022-08-11T03:11:33.852Z,18.21
2022-08-11T03:13:58.605Z,18.23
2022-08-11T03:16:37.569Z,18.22
2022-08-11T03:18:47.010Z,18.19
2022-08-11T03:20:57.522Z,18.19
2022-08-11T03:23:19.635Z,18.16
2022-08-11T03:25:31.644Z,18.15
2022-08-11T03:27:44.077Z,18.05
2022-08-11T03:30:02.986Z,17.96
2022-08-11T03:32:11.111Z,17.84
2022-08-11T03:34:16.750Z,17.82
2022-08-11T03:37:15.669Z,17.80
2022-08-11T03:39:11.158Z,17.76
2022-08-11T03:42:01.914Z,17.76
2022-08-11T03:44:15.528Z,17.72
2022-08-11T03:46:27.416Z,17.70
2022-08-11T03:48:42.008Z,17.73
2022-08-11T03:51:02.091Z,17.69
2022-08-11T03:53:13.646Z,17.62
2022-08-11T03:55:24.974Z,17.55
2022-08-11T03:58:09.961Z,17.48
2022-08-11T04:00:21.018Z,17.49
2022-08-11T04:02:39.601Z,17.50
2022-08-11T04:05:25.410Z,17.48
2022-08-11T04:08:22.204Z,17.37
2022-08-11T04:10:41.826Z,17.40
2022-08-11T04:12:59.597Z,17.35
2022-08-11T04:15:31.830Z,17.20
2022-08-11T04:18:03.341Z,17.38
2022-08-11T04:20:20.517Z,17.30
2022-08-11T04:22:50.986Z,17.27
2022-08-11T04:25:23.224Z,17.38
2022-08-11T04:27:43.147Z,17.37
2022-08-11T04:30:01.907Z,17.38
2022-08-11T04:32:17.845Z,17.43
2022-08-11T04:35:08.093Z,17.19
2022-08-11T04:37:31.602Z,17.32
2022-08-11T04:39:44.823Z,17.39
2022-08-11T04:42:31.937Z,17.42
2022-08-11T04:44:59.897Z,17.40
2022-08-11T04:48:03.854Z,17.38
2022-08-11T04:50:41.541Z,17.39
2022-08-11T04:53:34.137Z,17.44
2022-08-11T04:56:20.529Z,17.45
2022-08-11T04:58:47.299Z,17.43
2022-08-11T05:01:18.707Z,17.43
2022-08-11T05:03:41.089Z,17.55
2022-08-11T05:06:17.857Z,17.69
2022-08-11T05:08:48.642Z,17.87
2022-08-11T05:11:18.438Z,18.03
2022-08-11T05:13:45.934Z,18.21
2022-08-11T05:19:04.562Z,18.74
2022-08-11T05:21:44.636Z,19.02
2022-08-11T05:24:12.547Z,19.37
2022-08-11T05:26:47.815Z,19.55
2022-08-11T05:29:19.687Z,19.98
2022-08-11T05:31:43.956Z,20.38
2022-08-11T05:34:06.697Z,20.77
2022-08-11T05:36:30.937Z,21.15
2022-08-11T05:38:54.113Z,21.64
2022-08-11T05:41:17.090Z,21.79
2022-08-11T05:43:37.901Z,21.98
2022-08-11T05:46:20.123Z,22.77
2022-08-11T05:48:40.895Z,23.16
2022-08-11T05:51:03.132Z,22.87
2022-08-11T05:53:45.840Z,23.23
2022-08-11T05:58:42.646Z,24.21
2022-08-11T06:00:47.450Z,24.39
2022-08-11T06:02:55.323Z,24.50
2022-08-11T06:05:02.313Z,24.77
2022-08-11T06:07:09.279Z,24.73
2022-08-11T06:09:14.380Z,24.65
2022-08-11T06:11:18.890Z,24.84
2022-08-11T06:13:46.439Z,25.31
2022-08-11T06:15:51.969Z,25.28
2022-08-11T06:17:56.151Z,25.67
2022-08-11T06:20:04.209Z,25.76
2022-08-11T06:22:12.921Z,25.76
2022-08-11T06:24:16.529Z,26.15
2022-08-11T06:26:20.458Z,26.00
2022-08-11T06:28:30.579Z,26.16
2022-08-11T06:30:40.444Z,26.56
2022-08-11T06:32:45.663Z,27.16
2022-08-11T06:35:13.925Z,27.52
2022-08-11T06:37:22.210Z,27.62
2022-08-11T06:39:30.208Z,28.11
2022-08-11T06:41:42.090Z,28.31
2022-08-11T06:43:55.598Z,28.21
2022-08-11T06:46:03.249Z,28.78
2022-08-11T06:48:11.279Z,29.29
2022-08-11T06:50:35.355Z,29.13
2022-08-11T06:52:40.255Z,29.52
2022-08-11T06:54:45.870Z,29.76
2022-08-11T06:57:28.825Z,29.98
2022-08-11T06:59:46.829Z,29.83
2022-08-11T07:01:59.758Z,30.41
2022-08-11T07:04:07.093Z,31.04
2022-08-11T07:06:34.436Z,31.52
2022-08-11T07:09:25.701Z,31.73
2022-08-11T07:12:20.005Z,31.93
2022-08-11T07:14:44.329Z,32.53
2022-08-11T07:16:49.613Z,32.50
2022-08-11T07:19:16.604Z,32.70
2022-08-11T07:22:00.791Z,32.94
2022-08-11T07:24:34.253Z,33.60
2022-08-11T07:27:08.956Z,33.45
2022-08-11T07:29:16.576Z,33.49
2022-08-11T07:31:25.603Z,34.64
2022-08-11T07:34:07.401Z,34.29
2022-08-11T07:35:59.106Z,34.04
2022-08-11T07:38:06.981Z,34.46
2022-08-11T07:40:12.503Z,33.38
2022-08-11T07:42:17.691Z,34.82
2022-08-11T07:44:33.938Z,35.41
2022-08-11T07:47:01.134Z,34.87
2022-08-11T07:49:22.661Z,35.32
2022-08-11T07:51:45.088Z,35.20
2022-08-11T07:54:03.061Z,34.90
2022-08-11T07:56:21.785Z,35.01
2022-08-11T07:58:58.894Z,36.18
2022-08-11T08:01:23.529Z,36.34
2022-08-11T08:03:54.514Z,35.98
2022-08-11T08:06:36.368Z,36.45
2022-08-11T08:08:58.943Z,37.48
2022-08-11T08:11:27.532Z,35.98
2022-08-11T08:13:48.883Z,37.70
2022-08-11T08:18:39.148Z,36.49
2022-08-11T08:20:47.030Z,36.75
2022-08-11T08:22:57.017Z,37.14
2022-08-11T08:25:01.873Z,37.78
2022-08-11T08:27:05.049Z,37.38
2022-08-11T08:29:26.152Z,37.67
2022-08-11T08:31:29.276Z,37.50
2022-08-11T08:33:33.217Z,37.03
2022-08-11T08:35:37.886Z,37.32
2022-08-11T08:37:59.813Z,37.22
2022-08-11T08:40:04.476Z,37.32
2022-08-11T08:42:11.689Z,36.83
2022-08-11T08:46:44.042Z,35.31
2022-08-11T08:48:48.525Z,35.63
2022-08-11T08:51:21.802Z,36.04
2022-08-11T08:53:29.157Z,36.30
2022-08-11T08:55:34.031Z,35.16
2022-08-11T08:57:39.508Z,36.09
2022-08-11T08:59:49.314Z,36.28
2022-08-11T09:01:59.028Z,36.50
2022-08-11T09:04:10.598Z,36.47
2022-08-11T09:06:18.213Z,36.60
2022-08-11T09:08:21.791Z,35.29
2022-08-11T09:10:25.601Z,36.36
2022-08-11T09:12:35.785Z,36.50
2022-08-11T09:15:03.437Z,36.03
2022-08-11T09:17:06.433Z,36.40
2022-08-11T09:19:09.944Z,36.44
2022-08-11T09:21:45.400Z,35.44
2022-08-11T09:24:07.734Z,36.34
2022-08-11T09:26:35.547Z,36.43
2022-08-11T09:28:40.160Z,35.70
2022-08-11T09:30:43.981Z,35.69
2022-08-11T09:32:46.917Z,36.12
2022-08-11T09:34:51.996Z,36.37
2022-08-11T09:37:13.463Z,36.22
2022-08-11T09:39:56.828Z,36.43
2022-08-11T09:42:03.375Z,35.64
2022-08-11T09:44:26.979Z,35.96
2022-08-11T09:46:31.103Z,35.76
2022-08-11T09:48:37.604Z,35.23
2022-08-11T09:50:41.047Z,35.50
2022-08-11T09:53:09.967Z,35.75
2022-08-11T09:55:11.968Z,35.90
2022-08-11T09:57:32.297Z,36.13
2022-08-11T09:59:36.634Z,36.51
2022-08-11T10:01:42.945Z,36.41
2022-08-11T10:03:45.982Z,36.49
2022-08-11T10:06:17.464Z,35.99
2022-08-11T10:08:21.868Z,35.11
2022-08-11T10:10:25.768Z,34.78
2022-08-11T10:12:30.648Z,34.96
2022-08-11T10:14:51.714Z,35.19
2022-08-11T10:16:56.364Z,35.45
2022-08-11T10:19:01.191Z,35.77
2022-08-11T10:24:00.228Z,35.81
2022-08-11T10:26:40.814Z,36.07
2022-08-11T10:29:02.424Z,35.89
2022-08-11T10:31:24.802Z,35.92
2022-08-11T10:33:59.353Z,35.08
2022-08-11T10:36:03.004Z,34.99
2022-08-11T10:38:09.745Z,35.39
2022-08-11T10:40:16.711Z,35.04
2022-08-11T10:42:55.378Z,35.26
2022-08-11T10:45:01.914Z,34.98
2022-08-11T10:47:23.635Z,34.59
2022-08-11T10:49:28.543Z,34.81
2022-08-11T10:51:53.678Z,34.21
2022-08-11T10:54:14.892Z,34.15
2022-08-11T10:56:35.972Z,34.14
2022-08-11T10:58:49.310Z,34.63
2022-08-11T11:00:56.892Z,34.68
2022-08-11T11:03:22.209Z,34.26
2022-08-11T11:05:30.395Z,34.68
2022-08-11T11:07:44.200Z,34.77
2022-08-11T11:09:50.716Z,34.80
2022-08-11T11:12:13.534Z,34.79
2022-08-11T11:14:35.771Z,34.34
2022-08-11T11:17:07.222Z,34.56
2022-08-11T11:19:11.280Z,34.93
2022-08-11T11:21:25.517Z,35.19
2022-08-11T11:23:35.709Z,35.21
2022-08-11T11:26:07.439Z,35.26
2022-08-11T11:28:20.693Z,34.97
2022-08-11T11:30:25.178Z,34.25
2022-08-11T11:32:34.211Z,34.32
2022-08-11T11:35:05.938Z,34.36
2022-08-11T11:37:12.504Z,33.62
2022-08-11T11:39:19.133Z,33.72
2022-08-11T11:41:28.175Z,33.69
2022-08-11T11:43:31.945Z,33.77
2022-08-11T11:45:35.042Z,33.59
2022-08-11T11:47:38.924Z,33.62
2022-08-11T11:49:44.060Z,34.02
2022-08-11T11:51:49.986Z,33.67
2022-08-11T11:53:55.234Z,33.46
2022-08-11T11:55:59.210Z,33.44
2022-08-11T11:58:22.242Z,32.63
2022-08-11T12:00:51.515Z,32.80
2022-08-11T12:02:54.904Z,32.90
2022-08-11T12:04:58.176Z,33.26
2022-08-11T12:07:15.170Z,33.73
2022-08-11T12:09:23.226Z,33.82
2022-08-11T12:11:46.183Z,33.81
2022-08-11T12:13:51.373Z,34.23
2022-08-11T12:16:31.170Z,34.48
2022-08-11T12:18:44.455Z,34.47
2022-08-11T12:20:47.518Z,34.66
2022-08-11T12:23:07.783Z,34.40
2022-08-11T12:25:29.597Z,34.62
2022-08-11T12:27:32.823Z,34.79
2022-08-11T12:29:36.050Z,34.69
2022-08-11T12:31:40.692Z,34.80
2022-08-11T12:37:23.582Z,35.08
2022-08-11T12:40:16.811Z,35.40
2022-08-11T12:42:25.113Z,35.51
2022-08-11T12:44:49.743Z,35.94
2022-08-11T12:46:52.829Z,35.91
2022-08-11T12:49:15.395Z,34.52
2022-08-11T12:52:11.768Z,34.31
2022-08-11T12:54:10.566Z,34.69
2022-08-11T12:56:30.987Z,34.45
2022-08-11T12:58:36.152Z,34.65
2022-08-11T13:00:56.766Z,35.15
2022-08-11T13:03:17.489Z,34.91
2022-08-11T13:05:21.060Z,35.29
2022-08-11T13:07:24.783Z,35.27
2022-08-11T13:09:27.754Z,35.47
2022-08-11T13:11:57.059Z,35.16
2022-08-11T13:14:02.596Z,35.15
2022-08-11T13:16:08.460Z,35.54
2022-08-11T13:18:12.272Z,34.56
2022-08-11T13:20:20.096Z,34.37
2022-08-11T13:22:24.391Z,34.25
2022-08-11T13:24:28.571Z,34.92
2022-08-11T13:26:47.725Z,34.65
2022-08-11T13:28:53.652Z,34.21
2022-08-11T13:31:12.446Z,34.21
2022-08-11T13:33:17.095Z,34.43
2022-08-11T13:35:21.000Z,34.38
2022-08-11T13:38:19.726Z,34.59
2022-08-11T13:39:47.942Z,35.23
2022-08-11T13:41:51.222Z,35.45
2022-08-11T13:43:54.629Z,35.28
2022-08-11T13:46:13.279Z,34.69
2022-08-11T13:48:17.425Z,35.14
2022-08-11T13:50:22.112Z,35.09
2022-08-11T13:52:26.397Z,35.14
2022-08-11T13:54:31.941Z,35.35
2022-08-11T13:56:39.709Z,35.47
2022-08-11T13:58:43.606Z,35.81
2022-08-11T14:00:55.716Z,35.98
2022-08-11T14:03:00.720Z,35.97
2022-08-11T14:05:07.121Z,35.69
2022-08-11T14:07:12.085Z,35.29
2022-08-11T14:09:17.414Z,34.90
2022-08-11T14:12:22.333Z,34.78
2022-08-11T14:14:01.462Z,34.56
2022-08-11T14:16:11.129Z,34.27
2022-08-11T14:18:19.905Z,34.56
2022-08-11T14:20:39.374Z,35.05
2022-08-11T14:22:43.606Z,34.68
2022-08-11T14:24:49.447Z,34.59
2022-08-11T14:26:52.831Z,34.78
2022-08-11T14:28:59.128Z,34.63
2022-08-11T14:31:05.373Z,34.69
2022-08-11T14:33:17.363Z,34.71
2022-08-11T14:35:26.491Z,34.93
2022-08-11T14:37:29.780Z,35.17
2022-08-11T14:39:36.230Z,34.94
2022-08-11T14:42:10.633Z,34.46
2022-08-11T14:44:33.851Z,34.43
2022-08-11T14:46:55.150Z,33.47
2022-08-11T14:48:58.144Z,33.52
2022-08-11T14:51:05.527Z,33.85
2022-08-11T14:53:10.528Z,33.88
2022-08-11T14:55:35.354Z,33.76
2022-08-11T14:57:55.393Z,33.83
2022-08-11T15:00:02.068Z,33.88
2022-08-11T15:02:23.709Z,33.33
2022-08-11T15:04:35.277Z,33.03
2022-08-11T15:06:43.037Z,33.14
2022-08-11T15:08:58.039Z,33.03
2022-08-11T15:11:01.197Z,33.02
2022-08-11T15:13:03.670Z,33.05
2022-08-11T15:15:25.592Z,33.21
2022-08-11T15:17:43.176Z,32.93
2022-08-11T15:20:01.412Z,32.85
2022-08-11T15:22:27.851Z,32.94
2022-08-11T15:24:31.389Z,32.88
2022-08-11T15:26:55.478Z,32.73
2022-08-11T15:29:18.522Z,32.61
2022-08-11T15:31:52.439Z,32.65
2022-08-11T15:34:14.405Z,32.46
2022-08-11T15:36:39.127Z,32.37
2022-08-11T15:38:48.997Z,32.17
2022-08-11T15:41:16.929Z,32.08
2022-08-11T15:43:40.025Z,32.04
2022-08-11T15:45:50.152Z,31.85
2022-08-11T15:48:05.341Z,31.90
2022-08-11T15:50:13.834Z,31.97
2022-08-11T15:52:22.853Z,31.91
2022-08-11T15:54:31.048Z,31.94
2022-08-11T15:56:34.389Z,31.91
2022-08-11T15:59:10.739Z,31.92
2022-08-11T16:01:40.575Z,31.71
2022-08-11T16:04:08.929Z,31.58
2022-08-11T16:06:13.827Z,31.60
2022-08-11T16:08:26.021Z,31.69
2022-08-11T16:10:39.419Z,31.78
2022-08-11T16:13:18.173Z,31.66
2022-08-11T16:15:38.786Z,31.59
2022-08-11T16:17:44.796Z,31.54
2022-08-11T16:19:50.289Z,31.34
2022-08-11T16:21:54.635Z,31.31
2022-08-11T16:23:59.099Z,31.25
2022-08-11T16:27:07.218Z,31.37
2022-08-11T16:28:31.567Z,31.34
2022-08-11T16:30:36.306Z,31.32
2022-08-11T16:32:41.793Z,31.32
2022-08-11T16:35:03.577Z,31.29
2022-08-11T16:37:24.278Z,31.21
2022-08-11T16:39:28.457Z,31.10
2022-08-11T16:41:52.854Z,31.04
2022-08-11T16:44:13.511Z,30.92
2022-08-11T16:46:32.631Z,30.74
2022-08-11T16:48:38.761Z,30.74
2022-08-11T16:50:42.608Z,30.76
2022-08-11T16:52:45.629Z,30.66
2022-08-11T16:54:49.045Z,30.68
2022-08-11T16:56:54.927Z,30.77
2022-08-11T16:59:17.838Z,30.76
2022-08-11T17:01:22.748Z,30.67
2022-08-11T17:03:43.354Z,30.58
2022-08-11T17:06:09.166Z,30.54
2022-08-11T17:08:29.673Z,30.52
2022-08-11T17:10:56.462Z,30.53
2022-08-11T17:13:10.019Z,30.47
2022-08-11T17:15:36.154Z,30.47
2022-08-11T17:17:40.842Z,30.47
2022-08-11T17:20:40.621Z,30.44
2022-08-11T17:22:31.072Z,30.41
2022-08-11T17:24:36.008Z,30.38
2022-08-11T17:26:57.073Z,30.33
2022-08-11T17:29:03.067Z,30.31
2022-08-11T17:31:27.654Z,30.32
2022-08-11T17:33:48.338Z,30.25
2022-08-11T17:35:51.541Z,30.21
2022-08-11T17:37:55.203Z,30.18
2022-08-11T17:39:59.483Z,30.13
2022-08-11T17:42:22.325Z,30.17
2022-08-11T17:44:44.649Z,30.09
2022-08-11T17:47:06.369Z,30.09
2022-08-11T17:49:11.345Z,30.04
2022-08-11T17:51:37.035Z,30.00
2022-08-11T17:54:02.124Z,29.95
2022-08-11T17:56:42.082Z,29.93
2022-08-11T17:59:03.341Z,29.89
2022-08-11T18:01:09.068Z,29.86
2022-08-11T18:03:32.488Z,29.78
2022-08-11T18:05:37.721Z,29.75
2022-08-11T18:07:58.910Z,29.72
2022-08-11T18:10:20.906Z,29.66
2022-08-11T18:12:41.440Z,29.66
2022-08-11T18:15:05.214Z,29.57
2022-08-11T18:17:28.004Z,29.54
2022-08-11T18:19:49.319Z,29.49
2022-08-11T18:22:14.992Z,29.49
2022-08-11T18:24:36.683Z,29.44
2022-08-11T18:26:57.631Z,29.39
2022-08-11T18:29:18.875Z,29.36
2022-08-11T18:31:40.091Z,29.33
2022-08-11T18:34:07.359Z,29.27
2022-08-11T18:36:31.461Z,29.20
2022-08-11T18:38:52.128Z,29.16
2022-08-11T18:41:13.165Z,29.10
2022-08-11T18:43:38.846Z,29.03
2022-08-11T18:46:06.747Z,29.00
2022-08-11T18:48:33.279Z,28.96
2022-08-11T18:51:30.083Z,28.90
2022-08-11T18:53:38.717Z,28.83
2022-08-11T18:56:00.247Z,28.76
2022-08-11T18:58:24.012Z,28.67
2022-08-11T19:00:45.113Z,28.63
2022-08-11T19:03:07.136Z,28.55
2022-08-11T19:06:35.247Z,28.51
2022-08-11T19:08:12.108Z,28.42
2022-08-11T19:10:33.135Z,28.30
2022-08-11T19:12:59.058Z,28.30
2022-08-11T19:15:20.284Z,28.25
2022-08-11T19:17:44.465Z,28.20
2022-08-11T19:20:06.617Z,28.16
2022-08-11T19:22:27.752Z,28.09
2022-08-11T19:24:49.933Z,28.06
2022-08-11T19:27:11.957Z,27.98
2022-08-11T19:30:07.590Z,27.90
2022-08-11T19:32:14.346Z,27.86
2022-08-11T19:34:36.510Z,27.80
2022-08-11T19:36:57.168Z,27.73
2022-08-11T19:39:18.614Z,27.64
2022-08-11T19:41:56.530Z,27.56
2022-08-11T19:44:18.540Z,27.48
2022-08-11T19:46:41.190Z,27.42
2022-08-11T19:49:02.439Z,27.35
2022-08-11T19:51:26.757Z,27.26
2022-08-11T19:53:47.499Z,27.17
2022-08-11T19:56:09.916Z,27.09
2022-08-11T19:58:32.220Z,27.10
2022-08-11T20:00:52.881Z,27.09
2022-08-11T20:03:13.602Z,27.09
2022-08-11T20:05:33.925Z,27.08
2022-08-11T20:07:54.757Z,27.02
2022-08-11T20:10:18.605Z,26.96
2022-08-11T20:12:40.132Z,26.91
2022-08-11T20:15:02.357Z,26.85
2022-08-11T20:17:23.203Z,26.75
2022-08-11T20:19:55.182Z,26.59
2022-08-11T20:22:17.558Z,26.43
2022-08-11T20:24:38.908Z,26.41
2022-08-11T20:26:59.640Z,26.32
2022-08-11T20:29:20.996Z,26.14
2022-08-11T20:31:43.044Z,26.07
2022-08-11T20:34:05.609Z,25.99
2022-08-11T20:36:27.105Z,25.91
2022-08-11T20:38:49.122Z,25.84
2022-08-11T20:41:11.181Z,25.68
2022-08-11T20:44:08.421Z,25.65
2022-08-11T20:46:14.793Z,25.52
2022-08-11T20:48:37.828Z,25.45
2022-08-11T20:50:59.536Z,25.30
2022-08-11T20:53:20.067Z,25.17
2022-08-11T20:55:52.315Z,25.08
2022-08-11T21:00:55.073Z,24.86
2022-08-11T21:03:16.293Z,24.80
2022-08-11T21:06:10.437Z,24.61
2022-08-11T21:08:31.820Z,24.41
2022-08-11T21:10:55.637Z,24.31
2022-08-11T21:13:24.310Z,24.47
2022-08-11T21:16:01.587Z,24.43
2022-08-11T21:18:27.448Z,24.40
2022-08-11T21:20:50.668Z,24.31
2022-08-11T21:23:23.297Z,24.22
2022-08-11T21:25:46.050Z,24.14
2022-08-11T21:28:08.675Z,24.06
2022-08-11T21:30:29.768Z,24.03
2022-08-11T21:32:50.797Z,23.96
2022-08-11T21:35:11.959Z,23.83
2022-08-11T21:37:34.002Z,23.81
2022-08-11T21:39:56.477Z,23.82
2022-08-11T21:42:17.031Z,23.79
2022-08-11T21:44:37.962Z,23.76
2022-08-11T21:46:58.653Z,23.70
2022-08-11T21:49:19.794Z,23.58
2022-08-11T21:51:44.373Z,23.44
2022-08-11T21:54:05.296Z,23.34
2022-08-11T21:56:29.169Z,23.27
2022-08-11T21:58:49.986Z,23.23
2022-08-11T22:01:10.740Z,23.25
2022-08-11T22:03:31.346Z,23.26
2022-08-11T22:06:04.512Z,23.24
2022-08-11T22:08:25.240Z,23.21
2022-08-11T22:10:46.175Z,23.17
2022-08-11T22:13:08.251Z,23.07
2022-08-11T22:15:29.587Z,23.00
2022-08-11T22:17:53.635Z,22.99
2022-08-11T22:20:16.370Z,22.99
2022-08-11T22:22:52.418Z,22.97
2022-08-11T22:25:16.303Z,22.94
2022-08-11T22:27:39.459Z,22.88
2022-08-11T22:30:01.343Z,22.82
2022-08-11T22:32:22.240Z,22.82
2022-08-11T22:34:52.705Z,22.81
2022-08-11T22:37:27.224Z,22.79
2022-08-11T22:40:01.717Z,22.66
2022-08-11T22:42:33.288Z,22.67
2022-08-11T22:44:54.631Z,22.68
2022-08-11T22:47:19.783Z,22.64
2022-08-11T22:49:42.588Z,22.58
2022-08-11T22:52:19.635Z,22.52
2022-08-11T22:54:40.664Z,22.40
2022-08-11T22:57:01.561Z,22.33
2022-08-11T22:59:22.449Z,22.27
2022-08-11T23:01:54.753Z,21.99
2022-08-11T23:04:19.430Z,21.99
2022-08-11T23:06:40.440Z,22.11
2022-08-11T23:09:01.850Z,21.93
2022-08-11T23:11:24.912Z,21.88
2022-08-11T23:13:45.791Z,21.93
2022-08-11T23:16:06.519Z,21.99
2022-08-11T23:18:27.556Z,21.93
2022-08-11T23:20:55.099Z,21.91
2022-08-11T23:23:17.261Z,21.94
2022-08-11T23:25:37.644Z,21.91
2022-08-11T23:27:58.289Z,21.81
2022-08-11T23:30:20.195Z,21.82
2022-08-11T23:32:42.218Z,21.74
2022-08-11T23:35:40.165Z,21.64
2022-08-11T23:37:48.555Z,21.60
2022-08-11T23:40:09.327Z,21.63
2022-08-11T23:42:30.129Z,21.58
2022-08-11T23:44:56.113Z,21.53
2022-08-11T23:47:18.886Z,21.13
2022-08-11T23:49:39.621Z,21.40
2022-08-11T23:52:00.494Z,21.43
2022-08-11T23:54:23.198Z,21.35
2022-08-11T23:56:43.639Z,21.06
2022-08-11T23:59:04.567Z,20.96
